Whiskey Flats, Nevada
Current Conditions -  °F | °C
As of 2:52 PM on Tuesday 27 Jan 2015 (Local Time) from KBAN Reporting Station
Broken Clouds Broken Clouds  
Wind Chill: 37°   Ceiling: 5000
Heat Index: 41°   Visibility: NA
Dew Point: 30°   Wind: 6mph
Humidity: 65%   Direction: 70°ENE
Pressure: 30.2"   Gusts: NA
Location:  38.6331°N, 118.656°W
Report Text: KBAN 272252Z AUTO 07005KT FEW042 BKN050 05/M01 A3020 RMK AO2 SLP205 T00501011 $
Loading
Personal Weather Stations






























Interactive Weather Map New forecast layout! Learn more

10-Day Weather Forecast

Advertisements
Track Severe Weather on mobile